createdAt,value
2022-10-26T00:00:49.736Z,50.10
2022-10-26T00:03:17.660Z,50.10
2022-10-26T00:05:45.419Z,50.10
2022-10-26T00:08:14.493Z,50.10
2022-10-26T00:10:42.152Z,50.10
2022-10-26T00:13:11.096Z,50.10
2022-10-26T00:15:41.648Z,50.10
2022-10-26T00:18:09.491Z,50.10
2022-10-26T00:20:37.176Z,50.10
2022-10-26T00:23:04.885Z,50.10
2022-10-26T00:25:33.869Z,50.00
2022-10-26T00:28:01.578Z,50.00
2022-10-26T00:30:29.276Z,50.10
2022-10-26T00:32:56.920Z,50.70
2022-10-26T00:35:44.608Z,50.10
2022-10-26T00:38:12.258Z,50.00
2022-10-26T00:40:41.224Z,50.10
2022-10-26T00:43:14.736Z,50.10
2022-10-26T00:45:42.413Z,50.00
2022-10-26T00:48:13.087Z,50.00
2022-10-26T00:50:42.355Z,50.00
2022-10-26T00:53:10.030Z,50.00
2022-10-26T00:55:39.475Z,50.00
2022-10-26T00:58:09.319Z,50.00
2022-10-26T01:00:37.004Z,50.00
2022-10-26T01:03:06.523Z,50.00
2022-10-26T01:05:34.253Z,50.10
2022-10-26T01:08:01.908Z,50.00
2022-10-26T01:10:29.571Z,50.00
2022-10-26T01:12:57.635Z,49.90
2022-10-26T01:15:31.330Z,50.00
2022-10-26T01:18:02.176Z,50.00
2022-10-26T01:21:09.304Z,50.00
2022-10-26T01:23:39.708Z,49.90
2022-10-26T01:26:19.095Z,49.90
2022-10-26T01:29:02.759Z,49.90
2022-10-26T01:31:34.281Z,49.90
2022-10-26T01:34:03.684Z,49.90
2022-10-26T01:39:08.119Z,49.90
2022-10-26T01:41:37.592Z,49.90
2022-10-26T01:44:06.728Z,49.90
2022-10-26T01:46:37.250Z,50.00
2022-10-26T01:49:07.681Z,49.90
2022-10-26T01:51:35.388Z,49.90
2022-10-26T01:54:03.083Z,49.90
2022-10-26T01:56:31.766Z,49.90
2022-10-26T01:59:23.866Z,49.90
2022-10-26T02:02:29.800Z,49.90
2022-10-26T02:05:25.108Z,49.90
2022-10-26T02:07:57.293Z,49.90
2022-10-26T02:10:31.724Z,49.90
2022-10-26T02:13:02.205Z,49.90
2022-10-26T02:15:33.975Z,49.90
2022-10-26T02:18:05.345Z,49.90
2022-10-26T02:20:34.617Z,49.90
2022-10-26T02:23:02.763Z,49.90
2022-10-26T02:25:31.857Z,49.90
2022-10-26T02:28:01.493Z,49.90
2022-10-26T02:30:29.191Z,49.90
2022-10-26T02:32:57.562Z,49.90
2022-10-26T02:35:28.518Z,50.00
2022-10-26T02:37:56.457Z,50.00
2022-10-26T02:40:26.418Z,50.00
2022-10-26T02:42:54.494Z,49.90
2022-10-26T02:45:23.600Z,49.90
2022-10-26T02:47:51.649Z,49.90
2022-10-26T02:50:20.265Z,49.90
2022-10-26T02:52:51.018Z,49.90
2022-10-26T02:55:20.887Z,49.90
2022-10-26T02:57:49.357Z,49.90
2022-10-26T03:00:18.055Z,49.90
2022-10-26T03:02:48.573Z,49.90
2022-10-26T03:05:17.579Z,49.90
2022-10-26T03:07:45.259Z,50.00
2022-10-26T03:10:14.261Z,49.90
2022-10-26T03:12:41.921Z,49.90
2022-10-26T03:15:10.324Z,50.00
2022-10-26T03:17:38.143Z,50.00
2022-10-26T03:20:06.738Z,50.00
2022-10-26T03:22:34.407Z,50.00
2022-10-26T03:25:02.144Z,50.00
2022-10-26T03:27:31.355Z,50.00
2022-10-26T03:29:59.026Z,50.00
2022-10-26T03:32:26.676Z,50.00
2022-10-26T03:34:54.385Z,50.00
2022-10-26T03:37:22.049Z,50.00
2022-10-26T03:39:49.687Z,50.00
2022-10-26T03:42:17.355Z,50.00
2022-10-26T03:44:47.104Z,50.00
2022-10-26T03:47:14.820Z,50.00
2022-10-26T03:49:42.522Z,50.00
2022-10-26T03:52:10.257Z,50.00
2022-10-26T03:54:37.952Z,50.00
2022-10-26T03:57:05.693Z,50.00
2022-10-26T03:59:33.402Z,50.10
2022-10-26T04:02:02.449Z,50.10
2022-10-26T04:04:30.138Z,50.00
2022-10-26T04:06:57.951Z,50.00
2022-10-26T04:09:25.628Z,50.10
2022-10-26T04:11:53.400Z,50.00
2022-10-26T04:14:21.085Z,50.10
2022-10-26T04:16:48.768Z,50.10
2022-10-26T04:19:17.760Z,50.10
2022-10-26T04:21:45.417Z,50.10
2022-10-26T04:24:13.185Z,50.10
2022-10-26T04:26:40.837Z,50.10
2022-10-26T04:29:09.209Z,50.10
2022-10-26T04:31:36.909Z,50.20
2022-10-26T04:34:04.699Z,50.20
2022-10-26T04:36:34.479Z,50.10
2022-10-26T04:39:02.177Z,50.10
2022-10-26T04:41:29.885Z,50.20
2022-10-26T04:43:57.643Z,50.10
2022-10-26T04:46:25.333Z,50.20
2022-10-26T04:48:52.972Z,50.20
2022-10-26T04:51:20.676Z,50.20
2022-10-26T04:53:49.669Z,50.10
2022-10-26T04:56:17.369Z,50.20
2022-10-26T04:58:45.023Z,50.20
2022-10-26T05:01:12.756Z,50.10
2022-10-26T05:03:40.504Z,50.20
2022-10-26T05:06:08.349Z,50.10
2022-10-26T05:08:36.011Z,50.10
2022-10-26T05:11:05.169Z,50.10
2022-10-26T05:13:32.822Z,50.20
2022-10-26T05:16:00.537Z,50.10
2022-10-26T05:18:28.192Z,50.10
2022-10-26T05:20:55.985Z,50.20
2022-10-26T05:23:23.720Z,50.10
2022-10-26T05:25:51.427Z,50.10
2022-10-26T05:28:20.399Z,50.10
2022-10-26T05:30:48.203Z,50.20
2022-10-26T05:33:16.059Z,50.20
2022-10-26T05:35:43.781Z,50.20
2022-10-26T05:38:11.904Z,50.20
2022-10-26T05:40:39.665Z,50.20
2022-10-26T05:43:07.303Z,50.20
2022-10-26T05:45:36.269Z,50.20
2022-10-26T05:48:03.969Z,50.10
2022-10-26T05:50:31.656Z,50.20
2022-10-26T05:52:59.286Z,50.20
2022-10-26T05:55:27.626Z,50.20
2022-10-26T05:57:55.764Z,50.20
2022-10-26T06:00:24.788Z,50.20
2022-10-26T06:03:15.857Z,50.20
2022-10-26T06:05:53.258Z,50.10
2022-10-26T06:08:21.578Z,50.20
2022-10-26T06:10:49.765Z,50.20
2022-10-26T06:13:17.973Z,50.20
2022-10-26T06:15:50.774Z,50.10
2022-10-26T06:18:22.395Z,50.10
2022-10-26T06:20:52.699Z,50.10
2022-10-26T06:23:34.204Z,50.10
2022-10-26T06:26:03.528Z,50.10
2022-10-26T06:28:36.803Z,50.10
2022-10-26T06:31:04.457Z,50.10
2022-10-26T06:33:33.514Z,50.10
2022-10-26T06:36:07.292Z,50.00
2022-10-26T06:38:36.062Z,50.20
2022-10-26T06:41:03.725Z,50.00
2022-10-26T06:43:32.538Z,50.10
2022-10-26T06:46:05.102Z,50.10
2022-10-26T06:48:36.212Z,50.00
2022-10-26T06:51:04.408Z,50.00
2022-10-26T06:53:33.871Z,50.00
2022-10-26T06:56:02.219Z,50.00
2022-10-26T06:58:31.428Z,50.00
2022-10-26T07:00:59.545Z,50.00
2022-10-26T07:03:27.235Z,50.00
2022-10-26T07:05:56.260Z,50.00
2022-10-26T07:08:23.918Z,50.00
2022-10-26T07:10:51.607Z,50.00
2022-10-26T07:13:19.252Z,50.00
2022-10-26T07:15:48.024Z,50.00
2022-10-26T07:18:15.767Z,49.90
2022-10-26T07:20:43.841Z,49.90
2022-10-26T07:23:12.882Z,49.90
2022-10-26T07:25:41.004Z,49.90
2022-10-26T07:28:10.093Z,49.90
2022-10-26T07:30:38.130Z,49.90
2022-10-26T07:33:06.827Z,49.90
2022-10-26T07:35:34.597Z,49.90
2022-10-26T07:38:02.405Z,49.90
2022-10-26T07:40:31.494Z,49.80
2022-10-26T07:42:59.427Z,49.80
2022-10-26T07:45:27.315Z,50.40
2022-10-26T07:47:55.056Z,49.80
2022-10-26T07:50:22.867Z,49.80
2022-10-26T07:52:51.013Z,49.80
2022-10-26T07:55:19.165Z,49.80
2022-10-26T07:57:51.025Z,49.80
2022-10-26T08:00:22.693Z,49.80
2022-10-26T08:02:50.475Z,49.70
2022-10-26T08:05:18.241Z,49.70
2022-10-26T08:07:46.072Z,49.70
2022-10-26T08:10:14.207Z,49.70
2022-10-26T08:12:42.025Z,49.70
2022-10-26T08:15:11.229Z,49.70
2022-10-26T08:17:38.941Z,49.60
2022-10-26T08:20:07.530Z,49.60
2022-10-26T08:22:35.200Z,49.60
2022-10-26T08:25:02.875Z,49.60
2022-10-26T08:27:30.809Z,49.60
2022-10-26T08:29:58.456Z,49.60
2022-10-26T08:32:27.468Z,49.60
2022-10-26T08:34:55.165Z,49.60
2022-10-26T08:37:23.319Z,49.60
2022-10-26T08:39:54.689Z,49.60
2022-10-26T08:42:26.424Z,49.60
2022-10-26T08:44:58.401Z,49.50
2022-10-26T08:47:29.403Z,49.50
2022-10-26T08:50:00.755Z,49.50
2022-10-26T08:52:31.570Z,49.50
2022-10-26T08:54:59.211Z,49.40
2022-10-26T08:57:27.967Z,49.40
2022-10-26T08:59:59.077Z,49.30
2022-10-26T09:02:28.088Z,49.30
2022-10-26T09:04:55.967Z,49.30
2022-10-26T09:07:33.344Z,49.20
2022-10-26T09:10:05.387Z,49.20
2022-10-26T09:12:39.183Z,49.20
2022-10-26T09:15:12.864Z,49.10
2022-10-26T09:17:46.202Z,49.10
2022-10-26T09:20:35.860Z,49.10
2022-10-26T09:23:06.335Z,49.10
2022-10-26T09:25:36.980Z,49.10
2022-10-26T09:28:04.918Z,49.10
2022-10-26T09:30:32.611Z,49.10
2022-10-26T09:33:03.412Z,49.10
2022-10-26T09:35:34.329Z,49.10
2022-10-26T09:38:05.312Z,49.00
2022-10-26T09:40:36.335Z,49.00
2022-10-26T09:43:06.496Z,49.00
2022-10-26T09:45:35.821Z,49.10
2022-10-26T09:48:08.464Z,49.00
2022-10-26T09:50:36.930Z,49.00
2022-10-26T09:53:04.633Z,49.00
2022-10-26T09:55:32.339Z,48.90
2022-10-26T09:58:01.741Z,48.90
2022-10-26T10:00:29.693Z,48.90
2022-10-26T10:02:57.917Z,48.70
2022-10-26T10:05:51.241Z,48.70
2022-10-26T10:08:20.614Z,48.60
2022-10-26T10:10:59.384Z,48.70
2022-10-26T10:13:27.923Z,48.40
2022-10-26T10:15:55.996Z,48.50
2022-10-26T10:18:23.830Z,48.50
2022-10-26T10:20:54.779Z,48.40
2022-10-26T10:23:28.045Z,48.40
2022-10-26T10:26:03.314Z,48.30
2022-10-26T10:28:31.061Z,48.20
2022-10-26T10:31:00.355Z,48.20
2022-10-26T10:33:35.491Z,47.90
2022-10-26T10:36:05.506Z,48.10
2022-10-26T10:38:41.035Z,48.10
2022-10-26T10:41:16.967Z,47.90
2022-10-26T10:43:48.860Z,48.00
2022-10-26T10:46:20.518Z,48.20
2022-10-26T10:48:48.787Z,48.00
2022-10-26T10:51:21.268Z,48.10
2022-10-26T10:53:50.104Z,48.20
2022-10-26T10:56:38.997Z,48.30
2022-10-26T10:59:27.919Z,48.40
2022-10-26T11:02:03.002Z,48.40
2022-10-26T11:04:42.130Z,48.30
2022-10-26T11:07:11.131Z,48.30
2022-10-26T11:09:40.189Z,48.10
2022-10-26T11:12:09.911Z,48.30
2022-10-26T11:14:39.184Z,48.20
2022-10-26T11:17:09.098Z,48.00
2022-10-26T11:19:39.407Z,47.80
2022-10-26T11:22:07.281Z,47.80
2022-10-26T11:24:38.069Z,47.90
2022-10-26T11:27:07.817Z,48.00
2022-10-26T11:29:39.872Z,47.90
2022-10-26T11:32:14.328Z,48.20
2022-10-26T11:34:44.925Z,48.20
2022-10-26T11:37:16.263Z,48.90
2022-10-26T11:39:46.202Z,48.40
2022-10-26T11:42:21.810Z,48.60
2022-10-26T11:44:53.003Z,48.40
2022-10-26T11:47:23.770Z,48.40
2022-10-26T11:49:53.251Z,49.00
2022-10-26T11:52:22.548Z,48.30
2022-10-26T11:54:54.304Z,48.40
2022-10-26T11:57:22.117Z,48.50
2022-10-26T11:59:51.622Z,48.60
2022-10-26T12:02:20.294Z,48.50
2022-10-26T12:04:50.619Z,48.50
2022-10-26T12:07:22.768Z,48.50
2022-10-26T12:09:51.755Z,48.30
2022-10-26T12:12:22.672Z,48.10
2022-10-26T12:14:53.717Z,48.20
2022-10-26T12:17:24.642Z,47.90
2022-10-26T12:19:54.416Z,48.00
2022-10-26T12:22:22.765Z,48.10
2022-10-26T12:25:10.049Z,48.20
2022-10-26T12:27:51.372Z,47.20
2022-10-26T12:30:31.897Z,47.10
2022-10-26T12:33:00.551Z,46.40
2022-10-26T12:35:35.734Z,46.90
2022-10-26T12:38:04.220Z,45.70
2022-10-26T12:40:45.632Z,44.50
2022-10-26T12:43:38.743Z,42.10
2022-10-26T12:46:43.622Z,41.20
2022-10-26T12:49:57.034Z,40.70
2022-10-26T12:52:53.735Z,39.30
2022-10-26T12:55:34.449Z,38.80
2022-10-26T12:58:13.099Z,38.80
2022-10-26T13:00:42.608Z,38.20
2022-10-26T13:03:17.623Z,38.80
2022-10-26T13:06:07.280Z,38.40
2022-10-26T13:08:40.167Z,38.50
2022-10-26T13:11:08.494Z,39.40
2022-10-26T13:13:37.481Z,40.20
2022-10-26T13:16:05.511Z,40.30
2022-10-26T13:18:33.161Z,40.00
2022-10-26T13:21:05.473Z,39.80
2022-10-26T13:23:34.470Z,38.80
2022-10-26T13:26:07.275Z,38.50
2022-10-26T13:28:46.667Z,37.70
2022-10-26T13:31:33.275Z,37.60
2022-10-26T13:34:02.182Z,38.00
2022-10-26T13:36:33.573Z,38.60
2022-10-26T13:39:02.260Z,39.60
2022-10-26T13:41:33.261Z,40.40
2022-10-26T13:44:04.166Z,41.30
2022-10-26T13:46:31.897Z,41.80
2022-10-26T13:49:01.676Z,42.50
2022-10-26T13:51:36.241Z,42.90
2022-10-26T13:54:04.418Z,43.60
2022-10-26T13:56:33.383Z,44.10
2022-10-26T13:59:03.840Z,44.40
2022-10-26T14:01:32.028Z,45.10
2022-10-26T14:03:59.931Z,45.00
2022-10-26T14:06:29.828Z,45.40
2022-10-26T14:08:58.479Z,45.80
2022-10-26T14:11:32.003Z,46.30
2022-10-26T14:13:59.672Z,46.80
2022-10-26T14:16:30.621Z,47.20
2022-10-26T14:18:58.274Z,47.40
2022-10-26T14:21:26.035Z,47.50
2022-10-26T14:23:56.448Z,48.10
2022-10-26T14:26:25.876Z,48.00
2022-10-26T14:28:54.848Z,48.20
2022-10-26T14:31:27.525Z,48.60
2022-10-26T14:33:57.269Z,48.80
2022-10-26T14:36:27.567Z,48.80
2022-10-26T14:38:58.854Z,48.90
2022-10-26T14:41:27.380Z,49.10
2022-10-26T14:43:56.197Z,49.00
2022-10-26T14:46:23.848Z,49.70
2022-10-26T14:48:53.415Z,49.40
2022-10-26T14:51:23.137Z,50.00
2022-10-26T14:53:52.203Z,49.50
2022-10-26T14:56:23.706Z,49.60
2022-10-26T14:58:51.634Z,49.60
2022-10-26T15:01:28.331Z,49.50
2022-10-26T15:03:59.702Z,49.80
2022-10-26T15:06:34.125Z,51.20
2022-10-26T15:09:04.121Z,50.20
2022-10-26T15:11:32.882Z,50.10
2022-10-26T15:14:00.588Z,50.20
2022-10-26T15:16:29.452Z,50.60
2022-10-26T15:18:58.195Z,50.60
2022-10-26T15:21:27.023Z,50.80
2022-10-26T15:23:56.124Z,50.80
2022-10-26T15:26:23.813Z,50.80
2022-10-26T15:28:52.783Z,50.80
2022-10-26T15:31:30.023Z,51.00
2022-10-26T15:34:14.126Z,51.10
2022-10-26T15:36:42.309Z,51.50
2022-10-26T15:39:11.448Z,51.10
2022-10-26T15:41:41.552Z,50.60
2022-10-26T15:44:13.811Z,50.90
2022-10-26T15:46:41.525Z,50.90
2022-10-26T15:49:09.427Z,51.00
2022-10-26T15:51:37.173Z,51.00
2022-10-26T15:54:05.453Z,51.10
2022-10-26T15:56:34.440Z,51.60
2022-10-26T15:59:02.240Z,51.50
2022-10-26T16:01:30.375Z,51.30
2022-10-26T16:03:58.240Z,51.00
2022-10-26T16:06:27.305Z,51.20
2022-10-26T16:08:56.388Z,51.10
2022-10-26T16:11:24.129Z,51.20
2022-10-26T16:13:54.494Z,51.30
2022-10-26T16:16:23.925Z,51.40
2022-10-26T16:19:06.200Z,51.10
2022-10-26T16:21:41.807Z,51.50
2022-10-26T16:24:10.207Z,51.50
2022-10-26T16:26:37.928Z,51.90
2022-10-26T16:29:07.074Z,51.90
2022-10-26T16:31:34.852Z,51.80
2022-10-26T16:34:04.209Z,52.00
2022-10-26T16:36:34.006Z,52.10
2022-10-26T16:41:34.963Z,52.10
2022-10-26T16:44:02.661Z,52.10
2022-10-26T16:46:31.735Z,52.30
2022-10-26T16:49:00.436Z,52.60
2022-10-26T16:51:28.709Z,52.50
2022-10-26T16:53:57.043Z,53.00
2022-10-26T16:56:26.757Z,52.60
2022-10-26T16:58:54.531Z,52.80
2022-10-26T17:01:22.467Z,52.70
2022-10-26T17:03:52.063Z,52.70
2022-10-26T17:06:20.104Z,52.40
2022-10-26T17:08:47.905Z,52.30
2022-10-26T17:11:16.921Z,52.30
2022-10-26T17:13:44.625Z,52.30
2022-10-26T17:16:13.348Z,52.20
2022-10-26T17:18:41.865Z,52.30
2022-10-26T17:21:11.617Z,52.20
2022-10-26T17:23:39.375Z,52.10
2022-10-26T17:26:07.654Z,52.20
2022-10-26T17:28:35.395Z,52.20
2022-10-26T17:31:04.473Z,52.20
2022-10-26T17:33:33.561Z,52.20
2022-10-26T17:36:01.499Z,52.10
2022-10-26T17:38:32.777Z,52.20
2022-10-26T17:41:03.659Z,52.20
2022-10-26T17:43:31.984Z,52.30
2022-10-26T17:46:00.399Z,52.30
2022-10-26T17:48:28.410Z,52.30
2022-10-26T17:50:56.107Z,52.30
2022-10-26T17:53:23.780Z,52.30
2022-10-26T17:56:00.283Z,52.30
2022-10-26T17:58:28.998Z,52.40
2022-10-26T18:00:56.686Z,52.30
2022-10-26T18:03:24.425Z,52.30
2022-10-26T18:05:52.492Z,52.40
2022-10-26T18:08:20.200Z,52.40
2022-10-26T18:10:48.363Z,52.40
2022-10-26T18:13:17.411Z,52.40
2022-10-26T18:15:45.192Z,52.40
2022-10-26T18:18:12.925Z,52.30
2022-10-26T18:20:40.676Z,52.30
2022-10-26T18:23:08.408Z,52.30
2022-10-26T18:25:36.604Z,52.30
2022-10-26T18:28:04.650Z,52.30
2022-10-26T18:30:34.473Z,52.30
2022-10-26T18:33:02.130Z,52.30
2022-10-26T18:35:29.802Z,52.30
2022-10-26T18:37:57.521Z,52.20
2022-10-26T18:40:25.218Z,52.30
2022-10-26T18:42:52.892Z,52.30
2022-10-26T18:45:20.588Z,52.30
2022-10-26T18:47:49.832Z,52.30
2022-10-26T18:50:17.747Z,52.30
2022-10-26T18:52:45.681Z,52.30
2022-10-26T18:55:13.357Z,52.30
2022-10-26T18:57:41.207Z,52.30
2022-10-26T19:00:10.115Z,52.30
2022-10-26T19:02:37.767Z,52.30
2022-10-26T19:05:07.992Z,52.40
2022-10-26T19:07:37.785Z,52.40
2022-10-26T19:10:05.999Z,52.40
2022-10-26T19:12:33.646Z,52.40
2022-10-26T19:15:01.287Z,52.40
2022-10-26T19:17:28.918Z,52.30
2022-10-26T19:19:56.576Z,52.40
2022-10-26T19:22:25.544Z,52.30
2022-10-26T19:24:53.229Z,52.40
2022-10-26T19:27:20.871Z,52.30
2022-10-26T19:29:48.560Z,52.30
2022-10-26T19:32:16.192Z,52.30
2022-10-26T19:34:43.815Z,52.40
2022-10-26T19:37:11.452Z,52.30
2022-10-26T19:39:40.460Z,52.30
2022-10-26T19:42:08.091Z,52.30
2022-10-26T19:44:35.718Z,52.30
2022-10-26T19:47:04.955Z,52.30
2022-10-26T19:49:32.621Z,52.20
2022-10-26T19:52:01.393Z,52.30
2022-10-26T19:54:29.028Z,52.20
2022-10-26T19:56:58.000Z,52.20
2022-10-26T19:59:26.690Z,52.20
2022-10-26T20:01:54.353Z,52.30
2022-10-26T20:04:22.242Z,52.20
2022-10-26T20:06:49.883Z,52.20
2022-10-26T20:09:18.411Z,52.20
2022-10-26T20:11:46.533Z,52.20
2022-10-26T20:14:15.737Z,52.20
2022-10-26T20:16:43.374Z,52.20
2022-10-26T20:19:11.286Z,52.20
2022-10-26T20:21:38.931Z,52.30
2022-10-26T20:24:10.039Z,52.20
2022-10-26T20:26:37.836Z,52.20
2022-10-26T20:29:05.467Z,52.20
2022-10-26T20:31:34.458Z,52.20
2022-10-26T20:34:02.116Z,52.20
2022-10-26T20:36:29.764Z,52.20
2022-10-26T20:38:57.921Z,52.20
2022-10-26T20:41:25.898Z,52.20
2022-10-26T20:43:57.163Z,52.20
2022-10-26T20:46:27.196Z,52.20
2022-10-26T20:48:56.646Z,52.10
2022-10-26T20:51:26.933Z,52.20
2022-10-26T20:53:59.080Z,52.70
2022-10-26T20:56:27.319Z,52.10
2022-10-26T20:58:55.916Z,52.20
2022-10-26T21:01:25.746Z,52.30
2022-10-26T21:03:53.552Z,52.50
2022-10-26T21:06:22.744Z,52.30
2022-10-26T21:08:50.543Z,52.30
2022-10-26T21:11:18.255Z,52.40
2022-10-26T21:13:46.382Z,52.30
2022-10-26T21:16:14.155Z,52.20
2022-10-26T21:18:41.881Z,52.20
2022-10-26T21:21:09.613Z,52.20
2022-10-26T21:23:39.951Z,52.10
2022-10-26T21:26:07.802Z,52.10
2022-10-26T21:28:36.936Z,52.20
2022-10-26T21:31:04.749Z,52.10
2022-10-26T21:33:32.723Z,52.10
2022-10-26T21:36:00.429Z,52.20
2022-10-26T21:38:28.459Z,52.40
2022-10-26T21:41:04.547Z,52.50
2022-10-26T21:43:32.283Z,52.30
2022-10-26T21:46:03.513Z,52.50
2022-10-26T21:48:31.963Z,52.30
2022-10-26T21:51:01.226Z,52.30
2022-10-26T21:53:28.880Z,52.40
2022-10-26T21:56:01.287Z,52.50
2022-10-26T21:58:30.856Z,52.70
2022-10-26T22:01:05.620Z,52.60
2022-10-26T22:03:33.526Z,52.60
2022-10-26T22:06:01.184Z,52.70
2022-10-26T22:08:28.981Z,52.70
2022-10-26T22:10:56.764Z,52.70
2022-10-26T22:13:24.457Z,52.70
2022-10-26T22:16:03.532Z,53.20
2022-10-26T22:18:31.157Z,52.70
2022-10-26T22:20:59.132Z,52.80
2022-10-26T22:23:26.812Z,52.60
2022-10-26T22:25:54.444Z,52.70
2022-10-26T22:28:22.118Z,52.70
2022-10-26T22:30:49.749Z,52.80
2022-10-26T22:33:18.720Z,52.60
2022-10-26T22:35:46.351Z,52.70
2022-10-26T22:38:13.982Z,52.60
2022-10-26T22:40:41.629Z,52.50
2022-10-26T22:43:09.293Z,52.60
2022-10-26T22:45:36.920Z,52.40
2022-10-26T22:48:04.703Z,52.50
2022-10-26T22:50:33.738Z,52.40
2022-10-26T22:53:01.386Z,52.40
2022-10-26T22:55:29.060Z,52.40
2022-10-26T22:57:56.675Z,52.40
2022-10-26T23:00:24.333Z,52.40
2022-10-26T23:02:51.946Z,52.30
2022-10-26T23:05:19.576Z,52.40
2022-10-26T23:07:48.810Z,52.30
2022-10-26T23:10:16.818Z,52.30
2022-10-26T23:12:44.443Z,52.30
2022-10-26T23:15:12.314Z,52.40
2022-10-26T23:17:39.965Z,52.30
2022-10-26T23:20:08.797Z,52.20
2022-10-26T23:22:36.433Z,52.30
2022-10-26T23:25:06.051Z,52.30
2022-10-26T23:27:33.924Z,52.20
2022-10-26T23:30:01.561Z,52.30
2022-10-26T23:32:29.197Z,52.30
2022-10-26T23:34:56.818Z,52.30
2022-10-26T23:37:24.448Z,52.20
2022-10-26T23:39:52.079Z,52.40
2022-10-26T23:42:21.045Z,52.40
2022-10-26T23:44:48.689Z,52.40
2022-10-26T23:47:16.333Z,52.40
2022-10-26T23:49:43.975Z,52.30
2022-10-26T23:52:11.672Z,52.30
2022-10-26T23:54:39.374Z,52.20
2022-10-26T23:57:07.046Z,52.20
2022-10-26T23:59:36.105Z,52.20
